sensor_id;sensor_type;location;lat;lon;timestamp;P1;durP1;ratioP1;P2;durP2;ratioP2
81815;SDS011;71249;52.084;5.304;2024-03-06T00:00:40;43.7;;;37.0;;
81815;SDS011;71249;52.084;5.304;2024-03-06T00:02:17;39.6;;;35.31;;
81815;SDS011;71249;52.084;5.304;2024-03-06T00:03:53;43.2;;;37.1;;
81815;SDS011;71249;52.084;5.304;2024-03-06T00:07:05;41.6;;;36.4;;
81815;SDS011;71249;52.084;5.304;2024-03-06T00:08:41;39.21;;;34.9;;
81815;SDS011;71249;52.084;5.304;2024-03-06T00:10:18;39.5;;;34.6;;
81815;SDS011;71249;52.084;5.304;2024-03-06T00:11:54;40.0;;;35.6;;
81815;SDS011;71249;52.084;5.304;2024-03-06T00:15:07;44.8;;;36.21;;
81815;SDS011;71249;52.084;5.304;2024-03-06T00:16:45;43.7;;;36.81;;
81815;SDS011;71249;52.084;5.304;2024-03-06T00:18:20;40.5;;;36.0;;
81815;SDS011;71249;52.084;5.304;2024-03-06T00:21:33;38.81;;;34.5;;
81815;SDS011;71249;52.084;5.304;2024-03-06T00:23:09;42.0;;;36.6;;
81815;SDS011;71249;52.084;5.304;2024-03-06T00:24:45;47.8;;;40.0;;
81815;SDS011;71249;52.084;5.304;2024-03-06T00:27:57;39.6;;;35.31;;
81815;SDS011;71249;52.084;5.304;2024-03-06T00:29:33;40.0;;;35.6;;
81815;SDS011;71249;52.084;5.304;2024-03-06T00:31:08;39.81;;;35.4;;
81815;SDS011;71249;52.084;5.304;2024-03-06T00:34:20;37.71;;;33.6;;
81815;SDS011;71249;52.084;5.304;2024-03-06T00:35:56;36.5;;;32.6;;
81815;SDS011;71249;52.084;5.304;2024-03-06T00:37:38;35.5;;;31.6;;
81815;SDS011;71249;52.084;5.304;2024-03-06T00:39:14;33.71;;;30.1;;
81815;SDS011;71249;52.084;5.304;2024-03-06T00:42:26;38.81;;;33.3;;
81815;SDS011;71249;52.084;5.304;2024-03-06T00:44:02;38.4;;;33.1;;
81815;SDS011;71249;52.084;5.304;2024-03-06T00:45:39;39.0;;;33.71;;
81815;SDS011;71249;52.084;5.304;2024-03-06T00:48:51;35.0;;;31.2;;
81815;SDS011;71249;52.084;5.304;2024-03-06T00:50:27;40.71;;;34.1;;
81815;SDS011;71249;52.084;5.304;2024-03-06T00:52:04;41.0;;;35.5;;
81815;SDS011;71249;52.084;5.304;2024-03-06T00:55:16;43.2;;;35.6;;
81815;SDS011;71249;52.084;5.304;2024-03-06T00:56:52;37.81;;;32.9;;
81815;SDS011;71249;52.084;5.304;2024-03-06T00:58:28;38.9;;;33.6;;
81815;SDS011;71249;52.084;5.304;2024-03-06T01:00:05;43.1;;;35.81;;
81815;SDS011;71249;52.084;5.304;2024-03-06T01:03:18;43.7;;;37.9;;
81815;SDS011;71249;52.084;5.304;2024-03-06T01:04:54;50.0;;;41.0;;
81815;SDS011;71249;52.084;5.304;2024-03-06T01:06:30;45.0;;;38.31;;
81815;SDS011;71249;52.084;5.304;2024-03-06T01:09:43;46.3;;;39.81;;
81815;SDS011;71249;52.084;5.304;2024-03-06T01:11:19;52.1;;;42.8;;
81815;SDS011;71249;52.084;5.304;2024-03-06T01:12:55;41.4;;;36.81;;
81815;SDS011;71249;52.084;5.304;2024-03-06T01:16:07;52.8;;;42.4;;
81815;SDS011;71249;52.084;5.304;2024-03-06T01:17:43;71.11;;;49.0;;
81815;SDS011;71249;52.084;5.304;2024-03-06T01:19:19;44.8;;;38.1;;
81815;SDS011;71249;52.084;5.304;2024-03-06T01:20:56;43.9;;;37.81;;
81815;SDS011;71249;52.084;5.304;2024-03-06T01:24:11;40.31;;;35.6;;
81815;SDS011;71249;52.084;5.304;2024-03-06T01:25:47;41.2;;;35.21;;
81815;SDS011;71249;52.084;5.304;2024-03-06T01:27:23;47.6;;;40.5;;
81815;SDS011;71249;52.084;5.304;2024-03-06T01:30:35;50.0;;;40.81;;
81815;SDS011;71249;52.084;5.304;2024-03-06T01:32:11;45.8;;;40.1;;
81815;SDS011;71249;52.084;5.304;2024-03-06T01:33:50;45.7;;;38.71;;
81815;SDS011;71249;52.084;5.304;2024-03-06T01:37:03;45.7;;;38.71;;
81815;SDS011;71249;52.084;5.304;2024-03-06T01:38:39;48.1;;;40.0;;
81815;SDS011;71249;52.084;5.304;2024-03-06T01:40:15;56.1;;;44.1;;
81815;SDS011;71249;52.084;5.304;2024-03-06T01:41:51;45.4;;;39.4;;
81815;SDS011;71249;52.084;5.304;2024-03-06T01:45:04;43.5;;;37.9;;
81815;SDS011;71249;52.084;5.304;2024-03-06T01:46:42;52.7;;;41.5;;
81815;SDS011;71249;52.084;5.304;2024-03-06T01:48:20;54.2;;;43.5;;
81815;SDS011;71249;52.084;5.304;2024-03-06T01:51:35;53.1;;;42.2;;
81815;SDS011;71249;52.084;5.304;2024-03-06T01:53:12;47.0;;;40.71;;
81815;SDS011;71249;52.084;5.304;2024-03-06T01:54:50;47.6;;;39.81;;
81815;SDS011;71249;52.084;5.304;2024-03-06T01:56:27;46.0;;;39.81;;
81815;SDS011;71249;52.084;5.304;2024-03-06T01:59:39;60.4;;;46.6;;
81815;SDS011;71249;52.084;5.304;2024-03-06T02:01:18;62.2;;;48.4;;
81815;SDS011;71249;52.084;5.304;2024-03-06T02:02:56;42.1;;;36.21;;
81815;SDS011;71249;52.084;5.304;2024-03-06T02:06:09;42.1;;;36.21;;
81815;SDS011;71249;52.084;5.304;2024-03-06T02:07:47;44.2;;;39.21;;
81815;SDS011;71249;52.084;5.304;2024-03-06T02:09:24;55.6;;;44.0;;
81815;SDS011;71249;52.084;5.304;2024-03-06T02:12:36;56.7;;;44.5;;
81815;SDS011;71249;52.084;5.304;2024-03-06T02:14:12;46.6;;;38.21;;
81815;SDS011;71249;52.084;5.304;2024-03-06T02:15:48;41.0;;;36.31;;
81815;SDS011;71249;52.084;5.304;2024-03-06T02:17:24;42.6;;;38.0;;
81815;SDS011;71249;52.084;5.304;2024-03-06T02:20:41;48.3;;;40.71;;
81815;SDS011;71249;52.084;5.304;2024-03-06T02:22:17;42.1;;;37.5;;
81815;SDS011;71249;52.084;5.304;2024-03-06T02:23:53;53.1;;;43.0;;
81815;SDS011;71249;52.084;5.304;2024-03-06T02:27:05;47.2;;;40.5;;
81815;SDS011;71249;52.084;5.304;2024-03-06T02:28:46;43.8;;;37.31;;
81815;SDS011;71249;52.084;5.304;2024-03-06T02:30:22;48.2;;;40.0;;
81815;SDS011;71249;52.084;5.304;2024-03-06T02:33:35;45.3;;;37.31;;
81815;SDS011;71249;52.084;5.304;2024-03-06T02:35:11;44.6;;;37.81;;
81815;SDS011;71249;52.084;5.304;2024-03-06T02:36:47;41.1;;;35.71;;
81815;SDS011;71249;52.084;5.304;2024-03-06T02:38:23;40.71;;;34.31;;
81815;SDS011;71249;52.084;5.304;2024-03-06T02:41:35;45.5;;;37.1;;
81815;SDS011;71249;52.084;5.304;2024-03-06T02:43:12;43.9;;;36.9;;
81815;SDS011;71249;52.084;5.304;2024-03-06T02:44:48;41.2;;;35.9;;
81815;SDS011;71249;52.084;5.304;2024-03-06T02:48:00;40.81;;;35.31;;
81815;SDS011;71249;52.084;5.304;2024-03-06T02:49:37;45.5;;;37.4;;
81815;SDS011;71249;52.084;5.304;2024-03-06T02:51:17;42.5;;;36.71;;
81815;SDS011;71249;52.084;5.304;2024-03-06T02:54:33;40.81;;;35.21;;
81815;SDS011;71249;52.084;5.304;2024-03-06T02:56:15;47.1;;;39.0;;
81815;SDS011;71249;52.084;5.304;2024-03-06T02:57:51;54.5;;;41.9;;
81815;SDS011;71249;52.084;5.304;2024-03-06T02:59:27;42.0;;;36.1;;
81815;SDS011;71249;52.084;5.304;2024-03-06T03:02:39;42.3;;;37.21;;
81815;SDS011;71249;52.084;5.304;2024-03-06T03:04:16;46.7;;;38.4;;
81815;SDS011;71249;52.084;5.304;2024-03-06T03:05:53;50.1;;;39.21;;
81815;SDS011;71249;52.084;5.304;2024-03-06T03:09:05;42.9;;;36.1;;
81815;SDS011;71249;52.084;5.304;2024-03-06T03:10:41;51.8;;;38.81;;
81815;SDS011;71249;52.084;5.304;2024-03-06T03:12:17;43.1;;;36.1;;
81815;SDS011;71249;52.084;5.304;2024-03-06T03:13:54;52.5;;;41.2;;
81815;SDS011;71249;52.084;5.304;2024-03-06T03:17:10;45.7;;;36.9;;
81815;SDS011;71249;52.084;5.304;2024-03-06T03:18:46;45.0;;;36.5;;
81815;SDS011;71249;52.084;5.304;2024-03-06T03:20:23;42.4;;;35.31;;
81815;SDS011;71249;52.084;5.304;2024-03-06T03:23:35;37.5;;;31.8;;
81815;SDS011;71249;52.084;5.304;2024-03-06T03:25:12;40.71;;;34.5;;
81815;SDS011;71249;52.084;5.304;2024-03-06T03:26:48;37.71;;;33.3;;
81815;SDS011;71249;52.084;5.304;2024-03-06T03:30:01;41.7;;;34.9;;
81815;SDS011;71249;52.084;5.304;2024-03-06T03:31:37;41.7;;;34.9;;
81815;SDS011;71249;52.084;5.304;2024-03-06T03:33:13;47.1;;;38.5;;
81815;SDS011;71249;52.084;5.304;2024-03-06T03:34:49;45.5;;;37.31;;
81815;SDS011;71249;52.084;5.304;2024-03-06T03:38:04;45.8;;;38.21;;
81815;SDS011;71249;52.084;5.304;2024-03-06T03:39:40;44.5;;;35.6;;
81815;SDS011;71249;52.084;5.304;2024-03-06T03:41:16;44.3;;;35.5;;
81815;SDS011;71249;52.084;5.304;2024-03-06T03:44:29;43.9;;;35.5;;
81815;SDS011;71249;52.084;5.304;2024-03-06T03:46:05;46.6;;;37.4;;
81815;SDS011;71249;52.084;5.304;2024-03-06T03:47:41;45.2;;;36.6;;
81815;SDS011;71249;52.084;5.304;2024-03-06T03:50:53;38.0;;;32.8;;
81815;SDS011;71249;52.084;5.304;2024-03-06T03:52:29;41.9;;;35.21;;
81815;SDS011;71249;52.084;5.304;2024-03-06T03:54:05;47.2;;;37.71;;
81815;SDS011;71249;52.084;5.304;2024-03-06T03:55:42;50.3;;;40.5;;
81815;SDS011;71249;52.084;5.304;2024-03-06T03:58:55;49.7;;;38.9;;
81815;SDS011;71249;52.084;5.304;2024-03-06T04:00:32;61.3;;;44.8;;
81815;SDS011;71249;52.084;5.304;2024-03-06T04:02:08;48.7;;;39.1;;
81815;SDS011;71249;52.084;5.304;2024-03-06T04:05:20;53.7;;;39.5;;
81815;SDS011;71249;52.084;5.304;2024-03-06T04:06:56;50.6;;;41.5;;
81815;SDS011;71249;52.084;5.304;2024-03-06T04:08:32;53.2;;;43.1;;
81815;SDS011;71249;52.084;5.304;2024-03-06T04:11:46;51.6;;;41.7;;
81815;SDS011;71249;52.084;5.304;2024-03-06T04:13:22;53.4;;;42.2;;
81815;SDS011;71249;52.084;5.304;2024-03-06T04:14:59;55.1;;;43.8;;
81815;SDS011;71249;52.084;5.304;2024-03-06T04:18:11;66.41;;;47.9;;
81815;SDS011;71249;52.084;5.304;2024-03-06T04:19:47;50.4;;;40.4;;
81815;SDS011;71249;52.084;5.304;2024-03-06T04:21:23;52.9;;;43.1;;
81815;SDS011;71249;52.084;5.304;2024-03-06T04:22:59;51.8;;;40.81;;
81815;SDS011;71249;52.084;5.304;2024-03-06T04:26:11;54.1;;;42.4;;
81815;SDS011;71249;52.084;5.304;2024-03-06T04:27:49;51.7;;;41.6;;
81815;SDS011;71249;52.084;5.304;2024-03-06T04:29:25;53.8;;;43.2;;
81815;SDS011;71249;52.084;5.304;2024-03-06T04:32:37;62.8;;;45.3;;
81815;SDS011;71249;52.084;5.304;2024-03-06T04:34:13;51.3;;;40.4;;
81815;SDS011;71249;52.084;5.304;2024-03-06T04:35:49;50.1;;;40.5;;
81815;SDS011;71249;52.084;5.304;2024-03-06T04:39:01;50.1;;;40.5;;
81815;SDS011;71249;52.084;5.304;2024-03-06T04:40:38;51.5;;;41.0;;
81815;SDS011;71249;52.084;5.304;2024-03-06T04:42:15;52.8;;;42.5;;
81815;SDS011;71249;52.084;5.304;2024-03-06T04:43:51;46.1;;;39.4;;
81815;SDS011;71249;52.084;5.304;2024-03-06T04:47:03;64.0;;;46.4;;
81815;SDS011;71249;52.084;5.304;2024-03-06T04:48:39;57.6;;;43.5;;
81815;SDS011;71249;52.084;5.304;2024-03-06T04:50:15;51.9;;;41.8;;
81815;SDS011;71249;52.084;5.304;2024-03-06T04:53:30;45.3;;;37.71;;
81815;SDS011;71249;52.084;5.304;2024-03-06T04:55:07;48.5;;;39.4;;
81815;SDS011;71249;52.084;5.304;2024-03-06T04:56:43;47.3;;;38.21;;
81815;SDS011;71249;52.084;5.304;2024-03-06T04:59:56;48.2;;;39.1;;
81815;SDS011;71249;52.084;5.304;2024-03-06T05:01:32;48.2;;;39.71;;
81815;SDS011;71249;52.084;5.304;2024-03-06T05:03:11;46.9;;;38.9;;
81815;SDS011;71249;52.084;5.304;2024-03-06T05:04:47;51.0;;;41.3;;
81815;SDS011;71249;52.084;5.304;2024-03-06T05:07:59;57.7;;;45.0;;
81815;SDS011;71249;52.084;5.304;2024-03-06T05:09:35;46.1;;;38.31;;
81815;SDS011;71249;52.084;5.304;2024-03-06T05:11:11;49.2;;;39.4;;
81815;SDS011;71249;52.084;5.304;2024-03-06T05:14:24;43.8;;;37.21;;
81815;SDS011;71249;52.084;5.304;2024-03-06T05:16:00;43.8;;;37.21;;
81815;SDS011;71249;52.084;5.304;2024-03-06T05:17:36;47.7;;;38.4;;
81815;SDS011;71249;52.084;5.304;2024-03-06T05:20:48;56.8;;;42.9;;
81815;SDS011;71249;52.084;5.304;2024-03-06T05:22:24;55.1;;;42.5;;
81815;SDS011;71249;52.084;5.304;2024-03-06T05:24:00;48.9;;;39.0;;
81815;SDS011;71249;52.084;5.304;2024-03-06T05:27:12;49.2;;;39.1;;
81815;SDS011;71249;52.084;5.304;2024-03-06T05:28:48;60.0;;;46.0;;
81815;SDS011;71249;52.084;5.304;2024-03-06T05:30:25;49.4;;;40.1;;
81815;SDS011;71249;52.084;5.304;2024-03-06T05:32:01;54.0;;;42.2;;
81815;SDS011;71249;52.084;5.304;2024-03-06T05:35:13;46.5;;;38.6;;
81815;SDS011;71249;52.084;5.304;2024-03-06T05:36:49;45.6;;;38.0;;
81815;SDS011;71249;52.084;5.304;2024-03-06T05:38:25;50.3;;;41.1;;
81815;SDS011;71249;52.084;5.304;2024-03-06T05:41:38;56.4;;;43.6;;
81815;SDS011;71249;52.084;5.304;2024-03-06T05:43:14;63.0;;;47.8;;
81815;SDS011;71249;52.084;5.304;2024-03-06T05:44:50;57.9;;;44.9;;
81815;SDS011;71249;52.084;5.304;2024-03-06T05:48:02;53.6;;;43.2;;
81815;SDS011;71249;52.084;5.304;2024-03-06T05:49:38;51.2;;;41.1;;
81815;SDS011;71249;52.084;5.304;2024-03-06T05:51:14;55.5;;;43.7;;
81815;SDS011;71249;52.084;5.304;2024-03-06T05:52:50;54.6;;;45.0;;
81815;SDS011;71249;52.084;5.304;2024-03-06T05:56:04;52.2;;;43.4;;
81815;SDS011;71249;52.084;5.304;2024-03-06T05:57:40;65.6;;;50.1;;
81815;SDS011;71249;52.084;5.304;2024-03-06T05:59:17;60.3;;;46.5;;
81815;SDS011;71249;52.084;5.304;2024-03-06T06:02:30;56.7;;;44.0;;
81815;SDS011;71249;52.084;5.304;2024-03-06T06:04:06;55.7;;;44.2;;
81815;SDS011;71249;52.084;5.304;2024-03-06T06:05:43;56.9;;;44.0;;
81815;SDS011;71249;52.084;5.304;2024-03-06T06:08:55;60.5;;;45.6;;
81815;SDS011;71249;52.084;5.304;2024-03-06T06:10:31;53.9;;;42.7;;
81815;SDS011;71249;52.084;5.304;2024-03-06T06:12:07;71.91;;;52.0;;
81815;SDS011;71249;52.084;5.304;2024-03-06T06:15:19;56.7;;;46.2;;
81815;SDS011;71249;52.084;5.304;2024-03-06T06:16:56;54.0;;;43.8;;
81815;SDS011;71249;52.084;5.304;2024-03-06T06:18:33;73.0;;;52.1;;
81815;SDS011;71249;52.084;5.304;2024-03-06T06:20:09;61.9;;;47.7;;
81815;SDS011;71249;52.084;5.304;2024-03-06T06:23:22;62.0;;;47.0;;
81815;SDS011;71249;52.084;5.304;2024-03-06T06:24:58;62.0;;;47.2;;
81815;SDS011;71249;52.084;5.304;2024-03-06T06:26:34;53.6;;;43.6;;
81815;SDS011;71249;52.084;5.304;2024-03-06T06:29:46;56.1;;;45.0;;
81815;SDS011;71249;52.084;5.304;2024-03-06T06:31:23;61.2;;;45.3;;
81815;SDS011;71249;52.084;5.304;2024-03-06T06:32:59;61.1;;;48.3;;
81815;SDS011;71249;52.084;5.304;2024-03-06T06:36:12;64.6;;;46.8;;
81815;SDS011;71249;52.084;5.304;2024-03-06T06:37:48;72.5;;;54.4;;
81815;SDS011;71249;52.084;5.304;2024-03-06T06:39:24;74.91;;;54.2;;
81815;SDS011;71249;52.084;5.304;2024-03-06T06:41:00;64.0;;;49.7;;
81815;SDS011;71249;52.084;5.304;2024-03-06T06:44:12;64.1;;;50.4;;
81815;SDS011;71249;52.084;5.304;2024-03-06T06:45:48;70.2;;;53.1;;
81815;SDS011;71249;52.084;5.304;2024-03-06T06:47:24;70.8;;;53.4;;
81815;SDS011;71249;52.084;5.304;2024-03-06T06:50:37;79.2;;;56.5;;
81815;SDS011;71249;52.084;5.304;2024-03-06T06:52:14;66.91;;;50.8;;
81815;SDS011;71249;52.084;5.304;2024-03-06T06:53:50;80.7;;;57.1;;
81815;SDS011;71249;52.084;5.304;2024-03-06T06:57:02;86.1;;;56.2;;
81815;SDS011;71249;52.084;5.304;2024-03-06T06:58:38;71.7;;;51.4;;
81815;SDS011;71249;52.084;5.304;2024-03-06T07:00:14;82.8;;;55.2;;
81815;SDS011;71249;52.084;5.304;2024-03-06T07:03:27;142.81;;;64.6;;
81815;SDS011;71249;52.084;5.304;2024-03-06T07:05:04;106.9;;;59.3;;
81815;SDS011;71249;52.084;5.304;2024-03-06T07:06:39;349.9;;;96.7;;
81815;SDS011;71249;52.084;5.304;2024-03-06T07:08:16;343.7;;;87.6;;
81815;SDS011;71249;52.084;5.304;2024-03-06T07:11:28;188.0;;;69.11;;
81815;SDS011;71249;52.084;5.304;2024-03-06T07:13:04;208.3;;;76.3;;
81815;SDS011;71249;52.084;5.304;2024-03-06T07:14:40;193.9;;;78.11;;
81815;SDS011;71249;52.084;5.304;2024-03-06T07:17:52;200.0;;;75.0;;
81815;SDS011;71249;52.084;5.304;2024-03-06T07:19:28;187.8;;;78.41;;
81815;SDS011;71249;52.084;5.304;2024-03-06T07:21:04;110.9;;;55.3;;
81815;SDS011;71249;52.084;5.304;2024-03-06T07:24:17;66.6;;;48.2;;
81815;SDS011;71249;52.084;5.304;2024-03-06T07:25:53;132.9;;;62.8;;
81815;SDS011;71249;52.084;5.304;2024-03-06T07:27:29;178.3;;;63.6;;
81815;SDS011;71249;52.084;5.304;2024-03-06T07:29:05;107.0;;;53.1;;
81815;SDS011;71249;52.084;5.304;2024-03-06T07:32:17;55.6;;;44.6;;
81815;SDS011;71249;52.084;5.304;2024-03-06T07:33:53;117.2;;;61.5;;
81815;SDS011;71249;52.084;5.304;2024-03-06T07:35:29;99.4;;;59.0;;
81815;SDS011;71249;52.084;5.304;2024-03-06T07:38:41;143.81;;;64.5;;
81815;SDS011;71249;52.084;5.304;2024-03-06T07:40:18;160.1;;;71.5;;
81815;SDS011;71249;52.084;5.304;2024-03-06T07:41:53;141.6;;;65.1;;
81815;SDS011;71249;52.084;5.304;2024-03-06T07:45:06;101.7;;;58.1;;
81815;SDS011;71249;52.084;5.304;2024-03-06T07:46:43;89.5;;;56.3;;
81815;SDS011;71249;52.084;5.304;2024-03-06T07:48:19;54.4;;;44.7;;
81815;SDS011;71249;52.084;5.304;2024-03-06T07:51:31;105.1;;;63.5;;
81815;SDS011;71249;52.084;5.304;2024-03-06T07:53:07;63.9;;;50.4;;
81815;SDS011;71249;52.084;5.304;2024-03-06T07:54:43;70.61;;;53.7;;
81815;SDS011;71249;52.084;5.304;2024-03-06T07:56:19;62.8;;;49.4;;
81815;SDS011;71249;52.084;5.304;2024-03-06T07:59:32;64.7;;;50.1;;
81815;SDS011;71249;52.084;5.304;2024-03-06T08:01:08;80.61;;;57.8;;
81815;SDS011;71249;52.084;5.304;2024-03-06T08:02:44;80.61;;;57.8;;
81815;SDS011;71249;52.084;5.304;2024-03-06T08:05:56;73.3;;;54.4;;
81815;SDS011;71249;52.084;5.304;2024-03-06T08:07:32;100.4;;;61.5;;
81815;SDS011;71249;52.084;5.304;2024-03-06T08:09:08;87.5;;;59.3;;
81815;SDS011;71249;52.084;5.304;2024-03-06T08:12:21;80.0;;;56.2;;
81815;SDS011;71249;52.084;5.304;2024-03-06T08:13:57;102.8;;;60.9;;
81815;SDS011;71249;52.084;5.304;2024-03-06T08:15:33;77.5;;;54.1;;
81815;SDS011;71249;52.084;5.304;2024-03-06T08:18:46;76.2;;;53.4;;
81815;SDS011;71249;52.084;5.304;2024-03-06T08:20:22;115.2;;;64.0;;
81815;SDS011;71249;52.084;5.304;2024-03-06T08:21:58;75.91;;;52.9;;
81815;SDS011;71249;52.084;5.304;2024-03-06T08:23:34;102.7;;;57.8;;
81815;SDS011;71249;52.084;5.304;2024-03-06T08:26:48;77.5;;;52.0;;
81815;SDS011;71249;52.084;5.304;2024-03-06T08:28:25;76.3;;;54.0;;
81815;SDS011;71249;52.084;5.304;2024-03-06T08:30:01;70.2;;;51.8;;
81815;SDS011;71249;52.084;5.304;2024-03-06T08:33:13;77.11;;;55.2;;
81815;SDS011;71249;52.084;5.304;2024-03-06T08:34:49;103.3;;;59.0;;
81815;SDS011;71249;52.084;5.304;2024-03-06T08:36:25;129.31;;;65.41;;
81815;SDS011;71249;52.084;5.304;2024-03-06T08:39:37;89.3;;;54.2;;
81815;SDS011;71249;52.084;5.304;2024-03-06T08:41:13;89.3;;;54.2;;
81815;SDS011;71249;52.084;5.304;2024-03-06T08:42:49;128.9;;;59.6;;
81815;SDS011;71249;52.084;5.304;2024-03-06T08:44:25;72.11;;;54.0;;
81815;SDS011;71249;52.084;5.304;2024-03-06T08:47:38;146.9;;;63.9;;
81815;SDS011;71249;52.084;5.304;2024-03-06T08:49:14;74.7;;;54.1;;
81815;SDS011;71249;52.084;5.304;2024-03-06T08:50:50;76.11;;;55.2;;
81815;SDS011;71249;52.084;5.304;2024-03-06T08:54:02;100.3;;;56.9;;
81815;SDS011;71249;52.084;5.304;2024-03-06T08:55:38;68.61;;;51.2;;
81815;SDS011;71249;52.084;5.304;2024-03-06T08:57:14;57.8;;;47.7;;
81815;SDS011;71249;52.084;5.304;2024-03-06T09:00:27;76.61;;;51.2;;
81815;SDS011;71249;52.084;5.304;2024-03-06T09:02:11;88.0;;;58.4;;
81815;SDS011;71249;52.084;5.304;2024-03-06T09:03:49;55.1;;;47.9;;
81815;SDS011;71249;52.084;5.304;2024-03-06T09:05:25;65.7;;;51.3;;
81815;SDS011;71249;52.084;5.304;2024-03-06T09:08:37;59.0;;;50.4;;
81815;SDS011;71249;52.084;5.304;2024-03-06T09:10:13;55.7;;;48.3;;
81815;SDS011;71249;52.084;5.304;2024-03-06T09:11:52;64.7;;;51.0;;
81815;SDS011;71249;52.084;5.304;2024-03-06T09:15:05;56.5;;;50.4;;
81815;SDS011;71249;52.084;5.304;2024-03-06T09:16:41;54.0;;;46.7;;
81815;SDS011;71249;52.084;5.304;2024-03-06T09:18:18;49.8;;;44.5;;
81815;SDS011;71249;52.084;5.304;2024-03-06T09:21:30;53.0;;;46.9;;
81815;SDS011;71249;52.084;5.304;2024-03-06T09:23:06;56.5;;;49.2;;
81815;SDS011;71249;52.084;5.304;2024-03-06T09:24:42;59.6;;;48.0;;
81815;SDS011;71249;52.084;5.304;2024-03-06T09:26:18;54.8;;;48.5;;
81815;SDS011;71249;52.084;5.304;2024-03-06T09:29:30;57.8;;;49.0;;
81815;SDS011;71249;52.084;5.304;2024-03-06T09:31:07;52.0;;;46.4;;
81815;SDS011;71249;52.084;5.304;2024-03-06T09:32:44;56.7;;;49.7;;
81815;SDS011;71249;52.084;5.304;2024-03-06T09:35:56;48.7;;;43.6;;
81815;SDS011;71249;52.084;5.304;2024-03-06T09:37:32;51.5;;;45.9;;
81815;SDS011;71249;52.084;5.304;2024-03-06T09:39:08;47.4;;;42.3;;
81815;SDS011;71249;52.084;5.304;2024-03-06T09:42:20;47.5;;;42.6;;
81815;SDS011;71249;52.084;5.304;2024-03-06T09:43:56;51.7;;;45.8;;
81815;SDS011;71249;52.084;5.304;2024-03-06T09:45:33;48.7;;;43.4;;
81815;SDS011;71249;52.084;5.304;2024-03-06T09:47:09;49.2;;;43.9;;
81815;SDS011;71249;52.084;5.304;2024-03-06T09:50:27;49.5;;;44.1;;
81815;SDS011;71249;52.084;5.304;2024-03-06T09:52:08;42.5;;;38.21;;
81815;SDS011;71249;52.084;5.304;2024-03-06T09:53:45;42.8;;;38.5;;
81815;SDS011;71249;52.084;5.304;2024-03-06T09:57:00;38.1;;;34.31;;
81815;SDS011;71249;52.084;5.304;2024-03-06T09:58:36;39.4;;;35.31;;
81815;SDS011;71249;52.084;5.304;2024-03-06T10:00:12;37.5;;;33.71;;
81815;SDS011;71249;52.084;5.304;2024-03-06T10:01:50;37.5;;;33.71;;
81815;SDS011;71249;52.084;5.304;2024-03-06T10:05:17;36.71;;;32.9;;
81815;SDS011;71249;52.084;5.304;2024-03-06T10:06:57;36.81;;;33.1;;
81815;SDS011;71249;52.084;5.304;2024-03-06T10:08:35;38.0;;;34.1;;
81815;SDS011;71249;52.084;5.304;2024-03-06T10:10:11;35.0;;;31.5;;
81815;SDS011;71249;52.084;5.304;2024-03-06T10:13:24;40.71;;;36.5;;
81815;SDS011;71249;52.084;5.304;2024-03-06T10:15:01;37.9;;;34.0;;
81815;SDS011;71249;52.084;5.304;2024-03-06T10:16:37;34.4;;;30.9;;
81815;SDS011;71249;52.084;5.304;2024-03-06T10:20:16;34.71;;;31.0;;
81815;SDS011;71249;52.084;5.304;2024-03-06T10:21:55;31.8;;;28.5;;
81815;SDS011;71249;52.084;5.304;2024-03-06T10:23:32;32.71;;;29.4;;
81815;SDS011;71249;52.084;5.304;2024-03-06T10:25:08;31.1;;;27.9;;
81815;SDS011;71249;52.084;5.304;2024-03-06T10:28:21;31.6;;;28.4;;
81815;SDS011;71249;52.084;5.304;2024-03-06T10:30:01;31.6;;;28.4;;
81815;SDS011;71249;52.084;5.304;2024-03-06T10:31:37;29.2;;;26.4;;
81815;SDS011;71249;52.084;5.304;2024-03-06T10:33:14;25.8;;;23.3;;
81815;SDS011;71249;52.084;5.304;2024-03-06T10:36:31;23.5;;;21.1;;
81815;SDS011;71249;52.084;5.304;2024-03-06T10:38:08;23.7;;;21.4;;
81815;SDS011;71249;52.084;5.304;2024-03-06T10:39:45;23.3;;;21.0;;
81815;SDS011;71249;52.084;5.304;2024-03-06T10:43:08;21.4;;;19.2;;
81815;SDS011;71249;52.084;5.304;2024-03-06T10:44:47;20.3;;;18.41;;
81815;SDS011;71249;52.084;5.304;2024-03-06T10:46:29;18.0;;;16.3;;
81815;SDS011;71249;52.084;5.304;2024-03-06T10:48:08;18.7;;;16.8;;
81815;SDS011;71249;52.084;5.304;2024-03-06T10:51:22;18.3;;;16.61;;
81815;SDS011;71249;52.084;5.304;2024-03-06T10:52:59;18.61;;;16.7;;
81815;SDS011;71249;52.084;5.304;2024-03-06T10:54:36;17.2;;;15.4;;
81815;SDS011;71249;52.084;5.304;2024-03-06T10:56:12;17.61;;;15.8;;
81815;SDS011;71249;52.084;5.304;2024-03-06T10:59:29;16.11;;;14.5;;
81815;SDS011;71249;52.084;5.304;2024-03-06T11:01:05;18.0;;;16.11;;
81815;SDS011;71249;52.084;5.304;2024-03-06T11:02:43;15.9;;;14.3;;
81815;SDS011;71249;52.084;5.304;2024-03-06T11:06:02;15.9;;;14.4;;
81815;SDS011;71249;52.084;5.304;2024-03-06T11:07:39;15.9;;;14.4;;
81815;SDS011;71249;52.084;5.304;2024-03-06T11:09:15;14.1;;;12.7;;
81815;SDS011;71249;52.084;5.304;2024-03-06T11:10:51;13.3;;;11.9;;
81815;SDS011;71249;52.084;5.304;2024-03-06T11:14:10;12.5;;;11.2;;
81815;SDS011;71249;52.084;5.304;2024-03-06T11:15:50;9.71;;;7.8;;
81815;SDS011;71249;52.084;5.304;2024-03-06T11:17:27;12.3;;;10.1;;
81815;SDS011;71249;52.084;5.304;2024-03-06T11:20:41;12.5;;;11.2;;
81815;SDS011;71249;52.084;5.304;2024-03-06T11:22:17;11.5;;;10.0;;
81815;SDS011;71249;52.084;5.304;2024-03-06T11:24:14;10.8;;;9.71;;
81815;SDS011;71249;52.084;5.304;2024-03-06T11:26:00;14.2;;;11.0;;
81815;SDS011;71249;52.084;5.304;2024-03-06T11:28:01;13.4;;;12.0;;
81815;SDS011;71249;52.084;5.304;2024-03-06T11:30:18;12.7;;;11.0;;
81815;SDS011;71249;52.084;5.304;2024-03-06T11:31:56;10.8;;;8.0;;
81815;SDS011;71249;52.084;5.304;2024-03-06T11:35:19;12.8;;;11.5;;
81815;SDS011;71249;52.084;5.304;2024-03-06T11:36:56;12.7;;;10.7;;
81815;SDS011;71249;52.084;5.304;2024-03-06T11:38:33;14.0;;;11.7;;
81815;SDS011;71249;52.084;5.304;2024-03-06T11:40:12;8.9;;;8.0;;
81815;SDS011;71249;52.084;5.304;2024-03-06T11:43:26;11.8;;;10.6;;
81815;SDS011;71249;52.084;5.304;2024-03-06T11:45:12;12.3;;;10.8;;
81815;SDS011;71249;52.084;5.304;2024-03-06T11:46:57;11.5;;;9.9;;
81815;SDS011;71249;52.084;5.304;2024-03-06T11:48:35;10.5;;;9.1;;
81815;SDS011;71249;52.084;5.304;2024-03-06T11:51:49;7.7;;;6.9;;
81815;SDS011;71249;52.084;5.304;2024-03-06T11:53:26;8.5;;;7.6;;
81815;SDS011;71249;52.084;5.304;2024-03-06T11:55:06;9.5;;;7.5;;
81815;SDS011;71249;52.084;5.304;2024-03-06T11:58:21;10.0;;;8.4;;
81815;SDS011;71249;52.084;5.304;2024-03-06T12:00:02;9.71;;;8.71;;
81815;SDS011;71249;52.084;5.304;2024-03-06T12:01:40;10.3;;;9.21;;
81815;SDS011;71249;52.084;5.304;2024-03-06T12:03:17;9.81;;;8.5;;
81815;SDS011;71249;52.084;5.304;2024-03-06T12:06:31;10.21;;;9.1;;
81815;SDS011;71249;52.084;5.304;2024-03-06T12:08:08;9.9;;;8.9;;
81815;SDS011;71249;52.084;5.304;2024-03-06T12:09:44;7.8;;;5.5;;
81815;SDS011;71249;52.084;5.304;2024-03-06T12:12:56;6.6;;;5.11;;
81815;SDS011;71249;52.084;5.304;2024-03-06T12:14:34;9.31;;;8.31;;
81815;SDS011;71249;52.084;5.304;2024-03-06T12:16:12;10.0;;;8.31;;
81815;SDS011;71249;52.084;5.304;2024-03-06T12:17:48;8.2;;;6.2;;
81815;SDS011;71249;52.084;5.304;2024-03-06T12:21:02;10.4;;;7.3;;
81815;SDS011;71249;52.084;5.304;2024-03-06T12:22:43;8.5;;;7.0;;
81815;SDS011;71249;52.084;5.304;2024-03-06T12:24:20;7.6;;;5.3;;
81815;SDS011;71249;52.084;5.304;2024-03-06T12:27:40;6.2;;;5.0;;
81815;SDS011;71249;52.084;5.304;2024-03-06T12:29:17;7.9;;;6.8;;
81815;SDS011;71249;52.084;5.304;2024-03-06T12:30:55;7.9;;;6.8;;
81815;SDS011;71249;52.084;5.304;2024-03-06T12:32:31;5.9;;;5.3;;